Flight Track Log - Related Links

Times and Time Zones

All times are in EST time to prevent confusion due to time zone crossing. See the JZA8189 flight status page for this flight to view local times or setup timezone preferences in your user account.

Time Position Orientation Groundspeed Altitude Reporting Facility
EST Latitude Longitude Course Direction KTS MPH feet Rate Location/Type
Thu 09:09:47 AM 50.7000 -120.5333 298° West 140 161 3,400  Level Vancouver Center
Thu 09:10:47 AM 50.7167 -120.5833 298° West 140 161 4,700 1,400 Climbing Vancouver Center
Thu 09:11:47 AM 50.7167 -120.6333 270° West 140 161 6,200 1,350 Climbing Vancouver Center
Thu 09:12:47 AM 50.7000 -120.6833 242° Southwest 120 138 7,400 1,250 Climbing Vancouver Center
Thu 09:13:47 AM 50.6667 -120.7167 212° Southwest 120 138 8,700 1,000 Climbing Vancouver Center
Thu 09:14:47 AM 50.6333 -120.7500 212° Southwest 130 150 9,400 700 Climbing Vancouver Center
Thu 09:15:47 AM 50.6000 -120.7667 198° South 150 173 10,100 843 Climbing Vancouver Center
Thu 09:16:48 AM 50.5667 -120.8333 232° Southwest 150 173 11,100 1,100 Climbing Vancouver Center
Thu 09:17:47 AM 50.5333 -120.8500 198° South 160 184 12,300 1,008 Climbing Vancouver Center
Thu 09:18:47 AM 50.5000 -120.9167 232° Southwest 160 184 13,100 850 Climbing Vancouver Center
Thu 09:19:47 AM 50.4500 -120.9333 192° South 170 196 14,000 1,000 Climbing Vancouver Center
Thu 09:20:47 AM 50.4167 -121.0000 232° Southwest 180 207 15,100 942 Climbing Vancouver Center
Thu 09:21:48 AM 50.3833 -121.0500 224° Southwest 170 196 15,900 450 Climbing Vancouver Center
Thu 09:22:47 AM 50.3500 -121.1000 224° Southwest 180 207 16,000 50 Climbing Vancouver Center
Thu 09:23:47 AM 50.3000 -121.1667 220° Southwest 210 242 16,000  Level Vancouver Center
Thu 09:24:47 AM 50.2500 -121.2167 213° Southwest 220 253 16,000  Level Vancouver Center
Thu 09:25:48 AM 50.2000 -121.2667 213° Southwest 230 265 16,000  Level Vancouver Center
Thu 09:26:47 AM 50.1500 -121.3500 227° Southwest 240 276 16,000 -50 Level Vancouver Center
Thu 09:27:47 AM 50.1000 -121.4000 213° Southwest 240 276 15,900 150 Descending Vancouver Center
Thu 09:28:47 AM 50.0500 -121.4833 227° Southwest 230 265 16,300 200 Climbing Vancouver Center
Thu 09:29:47 AM 50.0000 -121.5333 213° Southwest 230 265 16,300  Level Vancouver Center
Thu 09:30:48 AM 49.9500 -121.6167 227° Southwest 230 265 16,300  Level Vancouver Center
Thu 09:31:47 AM 49.9000 -121.6667 213° Southwest 230 265 16,300 -50 Level Vancouver Center
Thu 09:32:47 AM 49.8500 -121.7333 221° Southwest 240 276 16,200 -50 Descending Vancouver Center
Thu 09:33:47 AM 49.8000 -121.8000 221° Southwest 240 276 16,200  Level Vancouver Center
Thu 09:34:47 AM 49.7333 -121.8833 219° Southwest 240 276 16,200 -248 Level Vancouver Center
Thu 09:35:48 AM 49.6833 -121.9333 213° Southwest 230 265 15,700 -600 Descending Vancouver Center
Thu 09:36:47 AM 49.6333 -122.0000 221° Southwest 250 288 15,000 -857 Descending Vancouver Center
Thu 09:37:47 AM 49.6000 -122.0667 232° Southwest 240 276 14,000 -950 Descending Vancouver Center
Thu 09:38:47 AM 49.5500 -122.1333 221° Southwest 230 265 13,100 -850 Descending Vancouver Center
Thu 09:39:47 AM 49.5000 -122.2000 221° Southwest 230 265 12,300 -793 Descending Vancouver Center
Thu 09:40:48 AM 49.4500 -122.2667 221° Southwest 230 265 11,500 -793 Descending Vancouver Center
Thu 09:41:48 AM 49.4000 -122.3167 213° Southwest 230 265 10,700 -807 Descending Vancouver Center
Thu 09:42:47 AM 49.3500 -122.3833 221° Southwest 220 253 9,900 -807 Descending Vancouver Center
Thu 09:43:47 AM 49.3333 -122.4667 253° West 190 219 9,100 -800 Descending Vancouver Center
Thu 09:44:47 AM 49.3333 -122.5500 270° West 190 219 8,300 -1,050 Descending Vancouver Center
Thu 09:45:47 AM 49.3333 -122.6167 270° West 190 219 7,000 -650 Descending Vancouver Center
Thu 09:46:47 AM 49.2833 -122.6500 204° Southwest 180 207 7,000 -500 Level Vancouver Center
Thu 09:47:47 AM 49.2167 -122.6667 189° South 200 230 6,000 -1,140 Descending Vancouver Center
Thu 09:48:48 AM 49.1667 -122.6833 192° South 200 230 4,700 -992 Descending Vancouver Center
Thu 09:49:48 AM 49.1167 -122.7000 192° South 190 219 4,000 -350 Descending Vancouver Center
Thu 09:50:48 AM 49.1167 -122.7833 270° West 170 196 4,000 -50 Level Vancouver Center
Thu 09:51:48 AM 49.1333 -122.8500 291° West 180 207 3,900 -450 Descending Vancouver Center
Thu 09:52:48 AM 49.1333 -122.9000 270° West 150 173 3,100 -800 Descending Vancouver Center
Thu 09:53:48 AM 49.1500 -122.9833 287° West 150 173 2,300 -800 Descending Vancouver Center
Thu 09:54:48 AM 49.1500 -123.0333 270° West 150 173 1,500 -750 Descending Vancouver Center
Thu 09:55:48 AM 49.1500 -123.0833 270° West 130 150 800 -600 Descending Vancouver Center
Thu 09:56:48 AM 49.1667 -123.1333 297° West 110 127 300 -500 Descending Vancouver Center

Login

Don't have an account? Register now (free) for customized features, flight alerts, and more!